Главная страница
METAR-TAF:

METAR-TAF

Аэропорты :

Al Jawf, Саудовская Аравия

широта: 29-47N, долгота: 040-06E, высота над уровнем моря: 689 м

Текущие метеонаблюдения

Эта сводка был подготовлена 1 час и 9 минут назад, в 19:00 UTC
Штиль
Температура 28°C
Влажность 17%
Давление 1018 hPa
Видимость 10 км и более
Нет облачности ниже 1500 м, и нет кучево-дождевой облачности

METAR: OESK 241900Z 00000KT CAVOK 28/01 Q1018 NOSIG

Время: 23:09 (20:09 UTC)

Прогноз

Эта сводка был подготовлена 9 часа и 9 минут назад, в 11:00 UTC
Прогноз действительный с 24-го 12 UTC до 25-го 18 UTC
Ветер 8 Узел от северно-северо-западный
Видимость 10 км и более
Нет облачности ниже 1500 м, и нет кучево-дождевой облачности
изменения
С 24-го 15 UTC до 24-го 17 UTC
Ветер 3 Узел переменных направлений
изменения
С 24-го 22 UTC до 25-го 00 UTC
Ветер 8 Узел от северо-северо-восточный

TAF: OESK 241100Z 2412/2518 34008KT CAVOK BECMG 2415/2417 VRB03KT BECMG 2422/2500 03008KT

Метеонаблюдения и прогнозы для более 4000 аэропортов (сводки METAR и TAF).

Имеющиеся станции представлены на карте желтыми и красными точками.

Чтобы увидеть название станции, наведите на нее мышь.

Затем щелкните, чтобы увидеть метеонаблюдения и метеопрогнозы.

Управление картой: чтобы увеличить масштаб, щелкните зеленые кнопки с черным крестиком; чтобы уменьшить масштаб, щелкните зеленую кнопку с тире; для просмотра соседних карт щелкайте зеленые стрелки.


METAR-TAF: